createdAt,value
2023-05-14T00:01:21.316Z,101240.29
2023-05-14T00:03:14.667Z,101239.08
2023-05-14T00:05:09.039Z,101238.86
2023-05-14T00:07:02.015Z,101240.38
2023-05-14T00:08:54.953Z,101241.13
2023-05-14T00:10:47.806Z,101237.93
2023-05-14T00:12:41.159Z,101237.97
2023-05-14T00:14:34.100Z,101238.88
2023-05-14T00:16:27.003Z,101237.71
2023-05-14T00:18:20.014Z,101238.46
2023-05-14T00:20:12.952Z,101236.44
2023-05-14T00:22:06.205Z,101239.70
2023-05-14T00:23:59.041Z,101238.78
2023-05-14T00:25:51.888Z,101239.96
2023-05-14T00:27:44.743Z,101237.08
2023-05-14T00:29:37.510Z,101239.18
2023-05-14T00:31:30.705Z,101236.03
2023-05-14T00:33:23.800Z,101235.26
2023-05-14T00:35:16.857Z,101234.29
2023-05-14T00:37:09.793Z,101234.23
2023-05-14T00:39:02.738Z,101234.39
2023-05-14T00:40:55.724Z,101233.84
2023-05-14T00:42:48.631Z,101231.14
2023-05-14T00:44:41.512Z,101231.47
2023-05-14T00:46:34.430Z,101233.35
2023-05-14T00:48:27.882Z,101230.73
2023-05-14T00:50:21.820Z,101230.44
2023-05-14T00:52:16.554Z,101226.20
2023-05-14T00:54:09.595Z,101227.33
2023-05-14T00:56:02.958Z,101228.66
2023-05-14T00:57:58.173Z,101227.98
2023-05-14T00:59:51.101Z,101227.34
2023-05-14T01:01:44.152Z,101228.44
2023-05-14T01:03:37.459Z,101228.80
2023-05-14T01:05:54.825Z,101234.63
2023-05-14T01:08:05.472Z,101229.45
2023-05-14T01:10:06.143Z,101229.05
2023-05-14T01:12:21.490Z,101228.91
2023-05-14T01:14:22.019Z,101230.15
2023-05-14T01:16:18.821Z,101229.59
2023-05-14T01:18:17.238Z,101228.99
2023-05-14T01:20:11.532Z,101223.49
2023-05-14T01:22:04.564Z,101223.08
2023-05-14T01:23:57.426Z,101221.89
2023-05-14T01:25:50.666Z,101215.35
2023-05-14T01:27:51.659Z,101213.74
2023-05-14T01:29:52.673Z,101212.65
2023-05-14T01:31:47.895Z,101208.13
2023-05-14T01:33:43.430Z,101206.23
2023-05-14T01:35:37.180Z,101210.47
2023-05-14T01:37:32.632Z,101207.39
2023-05-14T01:39:27.005Z,101200.89
2023-05-14T01:41:21.986Z,101205.38
2023-05-14T01:43:15.820Z,101204.02
2023-05-14T01:45:09.840Z,101204.23
2023-05-14T01:47:03.721Z,101203.75
2023-05-14T01:48:56.554Z,101203.57
2023-05-14T01:50:49.506Z,101202.05
2023-05-14T01:52:42.959Z,101199.83
2023-05-14T01:54:35.911Z,101197.33
2023-05-14T01:56:29.138Z,101191.41
2023-05-14T01:58:22.010Z,101190.66
2023-05-14T02:00:15.112Z,101186.12
2023-05-14T02:02:07.925Z,101189.30
2023-05-14T02:04:01.718Z,101184.29
2023-05-14T02:05:54.617Z,101187.25
2023-05-14T02:07:47.570Z,101185.51
2023-05-14T02:09:41.145Z,101186.50
2023-05-14T02:11:34.082Z,101181.67
2023-05-14T02:13:27.135Z,101180.89
2023-05-14T02:15:20.098Z,101178.70
2023-05-14T02:17:15.995Z,101179.86
2023-05-14T02:19:09.014Z,101180.36
2023-05-14T02:21:02.110Z,101176.58
2023-05-14T02:22:55.254Z,101173.60
2023-05-14T02:24:49.838Z,101170.67
2023-05-14T02:26:44.032Z,101171.86
2023-05-14T02:28:36.986Z,101173.83
2023-05-14T02:30:31.351Z,101169.67
2023-05-14T02:32:24.356Z,101171.33
2023-05-14T02:34:17.858Z,101168.30
2023-05-14T02:36:10.836Z,101173.12
2023-05-14T02:38:04.267Z,101169.92
2023-05-14T02:39:57.219Z,101169.41
2023-05-14T02:41:50.692Z,101167.48
2023-05-14T02:43:43.839Z,101165.59
2023-05-14T02:45:36.689Z,101166.64
2023-05-14T02:47:29.583Z,101170.54
2023-05-14T02:49:22.575Z,101170.52
2023-05-14T02:51:16.441Z,101168.67
2023-05-14T02:53:09.310Z,101186.99
2023-05-14T02:55:02.746Z,101192.97
2023-05-14T02:56:55.561Z,101194.58
2023-05-14T02:58:48.647Z,101191.89
2023-05-14T03:00:41.509Z,101191.14
2023-05-14T03:02:35.997Z,101180.83
2023-05-14T03:04:29.442Z,101183.92
2023-05-14T03:06:22.386Z,101188.45
2023-05-14T03:08:15.742Z,101182.64
2023-05-14T03:10:10.136Z,101185.59
2023-05-14T03:12:03.070Z,101184.43
2023-05-14T03:13:56.146Z,101181.62
2023-05-14T03:15:49.275Z,101187.60
2023-05-14T03:17:42.176Z,101183.16
2023-05-14T03:19:35.481Z,101186.73
2023-05-14T03:21:28.734Z,101186.87
2023-05-14T03:23:21.787Z,101183.94
2023-05-14T03:25:14.730Z,101183.26
2023-05-14T03:27:07.693Z,101184.20
2023-05-14T03:29:00.626Z,101181.21
2023-05-14T03:30:53.646Z,101181.23
2023-05-14T03:32:46.677Z,101181.83
2023-05-14T03:34:39.893Z,101182.92
2023-05-14T03:36:34.371Z,101184.23
2023-05-14T03:38:27.319Z,101185.92
2023-05-14T03:40:21.519Z,101177.79
2023-05-14T03:42:14.744Z,101175.54
2023-05-14T03:44:07.593Z,101174.66
2023-05-14T03:46:00.743Z,101174.07
2023-05-14T03:47:54.057Z,101172.95
2023-05-14T03:49:47.152Z,101172.77
2023-05-14T03:51:41.036Z,101172.71
2023-05-14T03:53:33.972Z,101177.56
2023-05-14T03:55:26.932Z,101178.13
2023-05-14T03:57:19.863Z,101174.08
2023-05-14T03:59:12.713Z,101176.99
2023-05-14T04:01:05.778Z,101177.73
2023-05-14T04:02:58.781Z,101173.79
2023-05-14T04:04:51.818Z,101173.28
2023-05-14T04:06:46.451Z,101167.02
2023-05-14T04:08:39.401Z,101168.16
2023-05-14T04:10:32.436Z,101170.61
2023-05-14T04:12:27.036Z,101170.49
2023-05-14T04:14:20.292Z,101164.39
2023-05-14T04:16:14.278Z,101161.59
2023-05-14T04:18:07.404Z,101160.05
2023-05-14T04:20:00.570Z,101157.55
2023-05-14T04:21:53.518Z,101157.77
2023-05-14T04:23:46.372Z,101159.86
2023-05-14T04:25:39.211Z,101161.92
2023-05-14T04:27:33.280Z,101159.71
2023-05-14T04:29:26.141Z,101156.77
2023-05-14T04:31:19.032Z,101161.86
2023-05-14T04:33:12.123Z,101164.14
2023-05-14T04:35:05.799Z,101162.40
2023-05-14T04:36:58.641Z,101163.45
2023-05-14T04:38:51.790Z,101163.16
2023-05-14T04:40:44.731Z,101164.09
2023-05-14T04:42:37.782Z,101164.00
2023-05-14T04:44:30.606Z,101166.52
2023-05-14T04:46:23.525Z,101163.21
2023-05-14T04:48:16.731Z,101164.06
2023-05-14T04:50:10.067Z,101160.89
2023-05-14T04:52:03.037Z,101159.23
2023-05-14T04:53:55.992Z,101156.21
2023-05-14T04:55:48.830Z,101154.23
2023-05-14T04:57:41.781Z,101154.85
2023-05-14T04:59:34.644Z,101156.98
2023-05-14T05:01:27.486Z,101157.94
2023-05-14T05:03:20.529Z,101157.30
2023-05-14T05:05:13.578Z,101157.22
2023-05-14T05:07:06.423Z,101159.52
2023-05-14T05:09:01.842Z,101161.08
2023-05-14T05:10:55.086Z,101158.91
2023-05-14T05:12:47.928Z,101157.35
2023-05-14T05:14:40.781Z,101156.88
2023-05-14T05:16:33.763Z,101155.95
2023-05-14T05:18:26.728Z,101154.00
2023-05-14T05:20:19.727Z,101156.35
2023-05-14T05:22:12.788Z,101152.59
2023-05-14T05:24:06.140Z,101155.25
2023-05-14T05:25:59.084Z,101154.09
2023-05-14T05:27:51.930Z,101152.11
2023-05-14T05:29:44.771Z,101150.11
2023-05-14T05:31:39.001Z,101152.93
2023-05-14T05:33:32.109Z,101151.65
2023-05-14T05:35:25.054Z,101146.55
2023-05-14T05:37:18.003Z,101144.80
2023-05-14T05:39:11.265Z,101146.18
2023-05-14T05:41:04.304Z,101140.21
2023-05-14T05:42:57.148Z,101141.76
2023-05-14T05:44:49.992Z,101140.16
2023-05-14T05:46:43.024Z,101144.73
2023-05-14T05:48:35.992Z,101144.16
2023-05-14T05:50:28.838Z,101143.07
2023-05-14T05:52:21.686Z,101141.93
2023-05-14T05:54:14.627Z,101143.45
2023-05-14T05:56:07.581Z,101135.48
2023-05-14T05:58:00.631Z,101134.22
2023-05-14T05:59:53.486Z,101131.13
2023-05-14T06:01:46.351Z,101132.09
2023-05-14T06:03:39.277Z,101128.95
2023-05-14T06:05:32.190Z,101129.95
2023-05-14T06:07:25.268Z,101128.80
2023-05-14T06:09:18.214Z,101129.11
2023-05-14T06:11:11.171Z,101127.89
2023-05-14T06:13:04.033Z,101122.69
2023-05-14T06:14:58.102Z,101120.92
2023-05-14T06:16:50.968Z,101126.23
2023-05-14T06:18:44.014Z,101121.77
2023-05-14T06:20:37.135Z,101122.05
2023-05-14T06:22:29.981Z,101121.15
2023-05-14T06:24:22.927Z,101117.64
2023-05-14T06:26:15.984Z,101119.81
2023-05-14T06:28:08.788Z,101121.13
2023-05-14T06:30:01.640Z,101115.09
2023-05-14T06:31:54.564Z,101118.20
2023-05-14T06:33:47.568Z,101117.33
2023-05-14T06:35:40.516Z,101117.71
2023-05-14T06:37:33.564Z,101117.41
2023-05-14T06:39:26.457Z,101119.20
2023-05-14T06:41:19.355Z,101123.12
2023-05-14T06:43:12.309Z,101123.57
2023-05-14T06:45:06.632Z,101125.88
2023-05-14T06:46:59.536Z,101125.27
2023-05-14T06:48:52.453Z,101118.66
2023-05-14T06:50:46.560Z,101117.30
2023-05-14T06:52:39.603Z,101110.52
2023-05-14T06:54:32.558Z,101113.64
2023-05-14T06:56:25.360Z,101114.21
2023-05-14T06:58:18.244Z,101109.76
2023-05-14T07:00:11.696Z,101105.14
2023-05-14T07:02:04.655Z,101099.68
2023-05-14T07:03:58.746Z,101097.48
2023-05-14T07:05:52.206Z,101097.46
2023-05-14T07:07:45.341Z,101102.10
2023-05-14T07:09:38.192Z,101091.79
2023-05-14T07:11:31.039Z,101091.89
2023-05-14T07:13:25.745Z,101090.36
2023-05-14T07:15:21.452Z,101084.02
2023-05-14T07:17:15.219Z,101085.58
2023-05-14T07:19:08.388Z,101084.63
2023-05-14T07:21:01.304Z,101085.71
2023-05-14T07:22:54.250Z,101088.45
2023-05-14T07:24:47.200Z,101082.50
2023-05-14T07:26:40.250Z,101080.30
2023-05-14T07:28:34.426Z,101078.29
2023-05-14T07:30:27.540Z,101077.02
2023-05-14T07:32:23.301Z,101074.03
2023-05-14T07:34:16.244Z,101071.39
2023-05-14T07:36:09.213Z,101070.51
2023-05-14T07:38:02.257Z,101062.60
2023-05-14T07:39:56.061Z,101066.20
2023-05-14T07:41:50.341Z,101061.55
2023-05-14T07:43:43.341Z,101055.80
2023-05-14T07:45:39.364Z,101060.73
2023-05-14T07:47:32.369Z,101057.19
2023-05-14T07:49:25.372Z,101057.69
2023-05-14T07:51:18.308Z,101058.73
2023-05-14T07:53:11.253Z,101055.16
2023-05-14T07:55:04.404Z,101053.98
2023-05-14T07:56:57.362Z,101056.59
2023-05-14T07:58:51.536Z,101051.95
2023-05-14T08:00:44.491Z,101052.86
2023-05-14T08:02:37.401Z,101053.73
2023-05-14T08:04:30.625Z,101050.43
2023-05-14T08:06:27.620Z,101052.11
2023-05-14T08:08:20.473Z,101045.73
2023-05-14T08:10:13.417Z,101044.98
2023-05-14T08:12:07.630Z,101042.14
2023-05-14T08:14:00.853Z,101040.59
2023-05-14T08:15:53.703Z,101042.85
2023-05-14T08:17:46.524Z,101043.63
2023-05-14T08:19:39.419Z,101038.09
2023-05-14T08:21:32.957Z,101040.73
2023-05-14T08:23:26.728Z,101038.95
2023-05-14T08:25:19.567Z,101033.55
2023-05-14T08:27:12.413Z,101033.94
2023-05-14T08:29:05.881Z,101034.00
2023-05-14T08:30:58.975Z,101033.55
2023-05-14T08:32:52.975Z,101034.81
2023-05-14T08:34:46.364Z,101031.18
2023-05-14T08:36:39.537Z,101026.44
2023-05-14T08:38:33.027Z,101021.81
2023-05-14T08:40:27.168Z,101023.23
2023-05-14T08:42:21.962Z,101017.17
2023-05-14T08:44:19.267Z,101020.73
2023-05-14T08:46:14.489Z,101018.16
2023-05-14T08:48:09.166Z,101018.52
2023-05-14T08:50:05.623Z,101014.10
2023-05-14T08:51:59.993Z,101011.62
2023-05-14T08:53:53.042Z,101010.35
2023-05-14T08:55:48.152Z,101009.40
2023-05-14T08:57:41.397Z,101005.88
2023-05-14T08:59:34.339Z,101007.00
2023-05-14T09:01:27.348Z,101006.71
2023-05-14T09:03:21.414Z,101002.17
2023-05-14T09:05:15.338Z,101008.59
2023-05-14T09:07:08.526Z,101006.01
2023-05-14T09:09:01.541Z,101005.52
2023-05-14T09:10:54.313Z,101001.38
2023-05-14T09:12:47.116Z,101001.03
2023-05-14T09:14:40.072Z,101003.17
2023-05-14T09:16:33.194Z,100998.98
2023-05-14T09:18:26.194Z,101001.02
2023-05-14T09:20:19.333Z,101002.16
2023-05-14T09:22:14.184Z,100998.07
2023-05-14T09:24:08.197Z,100998.45
2023-05-14T09:26:05.623Z,100998.66
2023-05-14T09:27:59.139Z,100995.59
2023-05-14T09:29:52.052Z,100992.30
2023-05-14T09:31:45.520Z,100993.55
2023-05-14T09:33:39.078Z,100992.95
2023-05-14T09:35:32.566Z,100991.73
2023-05-14T09:37:26.219Z,100992.38
2023-05-14T09:39:19.877Z,100992.72
2023-05-14T09:41:12.817Z,100989.66
2023-05-14T09:43:06.175Z,100995.17
2023-05-14T09:44:59.326Z,100992.99
2023-05-14T09:46:53.690Z,100985.13
2023-05-14T09:48:46.698Z,100981.95
2023-05-14T09:50:46.964Z,100980.54
2023-05-14T09:52:41.257Z,100977.55
2023-05-14T09:54:34.717Z,100979.55
2023-05-14T09:56:27.667Z,100970.89
2023-05-14T09:58:21.246Z,100966.26
2023-05-14T10:00:16.201Z,100964.09
2023-05-14T10:02:21.508Z,100958.96
2023-05-14T10:04:15.145Z,100959.37
2023-05-14T10:06:09.000Z,100955.65
2023-05-14T10:08:09.727Z,100956.89
2023-05-14T10:10:07.490Z,100949.78
2023-05-14T10:12:01.560Z,100947.15
2023-05-14T10:14:12.536Z,100939.98
2023-05-14T10:16:15.207Z,100936.30
2023-05-14T10:18:12.511Z,100930.33
2023-05-14T10:20:09.403Z,100926.05
2023-05-14T10:22:08.943Z,100920.58
2023-05-14T10:24:04.474Z,100921.87
2023-05-14T10:25:58.941Z,100920.10
2023-05-14T10:27:51.948Z,100910.98
2023-05-14T10:29:54.068Z,100906.11
2023-05-14T10:31:55.254Z,100906.23
2023-05-14T10:33:52.303Z,100899.39
2023-05-14T10:35:59.622Z,100890.89
2023-05-14T10:37:52.536Z,100894.97
2023-05-14T10:40:13.123Z,100898.69
2023-05-14T10:42:09.295Z,100896.72
2023-05-14T10:44:09.569Z,100897.02
2023-05-14T10:46:05.199Z,100896.03
2023-05-14T10:47:58.266Z,100888.92
2023-05-14T10:49:54.936Z,100887.68
2023-05-14T10:51:49.764Z,100877.48
2023-05-14T10:53:43.347Z,100871.75
2023-05-14T10:55:36.540Z,100869.20
2023-05-14T10:57:31.729Z,100864.73
2023-05-14T10:59:27.896Z,100864.43
2023-05-14T11:01:24.431Z,100856.53
2023-05-14T11:03:18.430Z,100856.54
2023-05-14T11:05:17.432Z,100855.63
2023-05-14T11:07:10.850Z,100848.08
2023-05-14T11:09:05.787Z,100848.69
2023-05-14T11:10:58.798Z,100840.75
2023-05-14T11:12:52.875Z,100841.30
2023-05-14T11:14:47.254Z,100838.84
2023-05-14T11:16:41.558Z,100838.92
2023-05-14T11:18:38.703Z,100836.73
2023-05-14T11:20:32.957Z,100834.77
2023-05-14T11:22:25.904Z,100831.25
2023-05-14T11:24:18.854Z,100829.48
2023-05-14T11:26:12.996Z,100824.41
2023-05-14T11:28:05.980Z,100817.95
2023-05-14T11:30:01.282Z,100823.11
2023-05-14T11:31:54.769Z,100822.11
2023-05-14T11:33:47.608Z,100815.63
2023-05-14T11:35:42.175Z,100813.95
2023-05-14T11:37:38.405Z,100819.59
2023-05-14T11:39:33.135Z,100818.98
2023-05-14T11:41:28.322Z,100817.02
2023-05-14T11:43:23.926Z,100811.51
2023-05-14T11:45:27.802Z,100810.69
2023-05-14T11:47:22.215Z,100807.30
2023-05-14T11:49:15.034Z,100804.05
2023-05-14T11:51:07.978Z,100805.27
2023-05-14T11:53:00.837Z,100802.64
2023-05-14T11:54:53.673Z,100800.34
2023-05-14T11:56:51.533Z,100799.27
2023-05-14T11:58:48.887Z,100792.77
2023-05-14T12:00:44.908Z,100793.96
2023-05-14T12:02:38.469Z,100795.39
2023-05-14T12:04:32.227Z,100791.41
2023-05-14T12:06:32.169Z,100789.71
2023-05-14T12:08:32.983Z,100790.46
2023-05-14T12:10:26.226Z,100790.59
2023-05-14T12:12:23.125Z,100783.58
2023-05-14T12:14:24.111Z,100785.47
2023-05-14T12:16:17.920Z,100777.11
2023-05-14T12:18:22.948Z,100778.63
2023-05-14T12:20:17.498Z,100777.85
2023-05-14T12:22:11.885Z,100775.28
2023-05-14T12:24:06.166Z,100770.65
2023-05-14T12:26:06.250Z,100767.34
2023-05-14T12:27:59.628Z,100763.76
2023-05-14T12:30:19.151Z,100761.09
2023-05-14T12:32:14.597Z,100762.27
2023-05-14T12:34:07.456Z,100760.83
2023-05-14T12:36:13.520Z,100756.40
2023-05-14T12:38:14.246Z,100757.11
2023-05-14T12:40:10.704Z,100759.73
2023-05-14T12:42:03.730Z,100759.40
2023-05-14T12:43:57.696Z,100755.58
2023-05-14T12:45:50.540Z,100754.66
2023-05-14T12:47:43.515Z,100756.80
2023-05-14T12:49:36.552Z,100753.04
2023-05-14T12:51:30.002Z,100746.96
2023-05-14T12:53:22.869Z,100749.65
2023-05-14T12:55:15.900Z,100747.44
2023-05-14T12:57:08.843Z,100747.45
2023-05-14T12:59:01.791Z,100743.56
2023-05-14T13:00:54.874Z,100745.63
2023-05-14T13:02:47.816Z,100742.02
2023-05-14T13:04:41.710Z,100738.61
2023-05-14T13:06:36.763Z,100731.24
2023-05-14T13:08:30.013Z,100730.08
2023-05-14T13:10:23.002Z,100733.36
2023-05-14T13:12:15.912Z,100733.77
2023-05-14T13:14:08.796Z,100738.39
2023-05-14T13:16:01.709Z,100734.00
2023-05-14T13:17:54.602Z,100733.27
2023-05-14T13:19:47.517Z,100726.81
2023-05-14T13:21:40.526Z,100722.06
2023-05-14T13:23:34.004Z,100720.63
2023-05-14T13:25:27.878Z,100714.25
2023-05-14T13:27:28.581Z,100715.63
2023-05-14T13:29:21.466Z,100714.42
2023-05-14T13:31:17.239Z,100718.30
2023-05-14T13:33:23.333Z,100716.42
2023-05-14T13:35:28.483Z,100720.45
2023-05-14T13:37:21.405Z,100721.45
2023-05-14T13:39:14.525Z,100717.52
2023-05-14T13:41:08.702Z,100725.11
2023-05-14T13:43:01.633Z,100720.64
2023-05-14T13:44:56.411Z,100716.69
2023-05-14T13:46:49.767Z,100712.17
2023-05-14T13:48:42.781Z,100711.03
2023-05-14T13:50:35.624Z,100712.65
2023-05-14T13:52:28.580Z,100711.20
2023-05-14T13:54:21.931Z,100714.13
2023-05-14T13:56:14.779Z,100709.65
2023-05-14T13:58:10.062Z,100706.52
2023-05-14T14:00:03.113Z,100706.54
2023-05-14T14:01:57.064Z,100705.20
2023-05-14T14:03:50.062Z,100698.55
2023-05-14T14:05:42.914Z,100698.82
2023-05-14T14:07:35.952Z,100700.17
2023-05-14T14:09:28.899Z,100701.34
2023-05-14T14:11:22.169Z,100700.29
2023-05-14T14:13:15.114Z,100699.22
2023-05-14T14:15:08.497Z,100693.30
2023-05-14T14:17:01.414Z,100695.02
2023-05-14T14:18:57.536Z,100694.46
2023-05-14T14:20:50.753Z,100689.52
2023-05-14T14:22:44.838Z,100685.14
2023-05-14T14:24:37.711Z,100686.36
2023-05-14T14:26:30.655Z,100684.19
2023-05-14T14:28:23.708Z,100682.38
2023-05-14T14:30:20.433Z,100687.34
2023-05-14T14:32:14.827Z,100682.47
2023-05-14T14:34:07.775Z,100677.77
2023-05-14T14:36:00.827Z,100679.48
2023-05-14T14:37:55.852Z,100681.08
2023-05-14T14:39:48.768Z,100678.98
2023-05-14T14:41:41.624Z,100675.88
2023-05-14T14:43:34.763Z,100674.28
2023-05-14T14:45:28.096Z,100674.77
2023-05-14T14:47:21.114Z,100670.25
2023-05-14T14:49:14.130Z,100667.39
2023-05-14T14:51:08.254Z,100665.34
2023-05-14T14:53:01.093Z,100669.67
2023-05-14T14:54:54.999Z,100663.53
2023-05-14T14:56:49.295Z,100660.59
2023-05-14T14:58:42.445Z,100657.06
2023-05-14T15:00:35.500Z,100656.66
2023-05-14T15:02:28.536Z,100655.61
2023-05-14T15:04:21.786Z,100651.38
2023-05-14T15:06:14.662Z,100648.48
2023-05-14T15:08:07.608Z,100645.88
2023-05-14T15:10:00.553Z,100642.22
2023-05-14T15:11:53.506Z,100640.88
2023-05-14T15:13:46.448Z,100635.38
2023-05-14T15:15:39.414Z,100637.84
2023-05-14T15:17:32.321Z,100627.80
2023-05-14T15:19:25.600Z,100626.97
2023-05-14T15:21:18.444Z,100626.60
2023-05-14T15:23:11.823Z,100625.98
2023-05-14T15:25:05.576Z,100626.94
2023-05-14T15:26:58.418Z,100626.06
2023-05-14T15:28:51.368Z,100623.04
2023-05-14T15:30:48.076Z,100621.91
2023-05-14T15:32:41.604Z,100621.40
2023-05-14T15:34:34.510Z,100620.94
2023-05-14T15:36:28.623Z,100620.52
2023-05-14T15:38:21.528Z,100621.33
2023-05-14T15:40:14.492Z,100617.80
2023-05-14T15:42:07.527Z,100616.52
2023-05-14T15:44:00.371Z,100615.30
2023-05-14T15:45:53.219Z,100615.02
2023-05-14T15:47:46.272Z,100615.02
2023-05-14T15:49:39.214Z,100615.23
2023-05-14T15:51:32.269Z,100612.44
2023-05-14T15:53:26.138Z,100607.50
2023-05-14T15:55:19.190Z,100604.49
2023-05-14T15:57:12.152Z,100605.04
2023-05-14T15:59:05.081Z,100604.11
2023-05-14T16:00:57.927Z,100599.01
2023-05-14T16:02:52.116Z,100598.05
2023-05-14T16:04:49.602Z,100597.40
2023-05-14T16:06:44.992Z,100592.04
2023-05-14T16:08:38.337Z,100590.40
2023-05-14T16:10:31.287Z,100588.23
2023-05-14T16:12:24.535Z,100588.09
2023-05-14T16:14:18.603Z,100588.44
2023-05-14T16:16:11.596Z,100584.85
2023-05-14T16:18:04.787Z,100585.73
2023-05-14T16:19:57.758Z,100581.65
2023-05-14T16:21:50.702Z,100583.99
2023-05-14T16:23:43.550Z,100581.73
2023-05-14T16:25:36.426Z,100578.71
2023-05-14T16:27:29.339Z,100582.02
2023-05-14T16:29:22.601Z,100577.48
2023-05-14T16:31:16.056Z,100575.77
2023-05-14T16:33:09.051Z,100573.27
2023-05-14T16:35:03.012Z,100570.95
2023-05-14T16:36:56.235Z,100567.39
2023-05-14T16:39:06.182Z,100559.20
2023-05-14T16:41:00.555Z,100560.37
2023-05-14T16:42:53.372Z,100558.71
2023-05-14T16:44:46.247Z,100555.60
2023-05-14T16:46:39.496Z,100562.02
2023-05-14T16:48:32.767Z,100559.75
2023-05-14T16:50:25.706Z,100557.98
2023-05-14T16:52:18.711Z,100555.33
2023-05-14T16:54:11.802Z,100553.29
2023-05-14T16:56:04.952Z,100555.63
2023-05-14T16:57:57.798Z,100557.40
2023-05-14T16:59:51.182Z,100558.50
2023-05-14T17:01:44.987Z,100557.96
2023-05-14T17:03:39.122Z,100561.44
2023-05-14T17:05:32.255Z,100556.30
2023-05-14T17:07:25.507Z,100555.02
2023-05-14T17:09:18.456Z,100559.95
2023-05-14T17:11:11.307Z,100558.90
2023-05-14T17:13:24.935Z,100555.92
2023-05-14T17:15:40.230Z,100552.45
2023-05-14T17:17:34.063Z,100552.84
2023-05-14T17:19:27.020Z,100553.01
2023-05-14T17:21:19.878Z,100556.70
2023-05-14T17:23:12.710Z,100563.00
2023-05-14T17:25:06.311Z,100557.23
2023-05-14T17:26:59.088Z,100558.39
2023-05-14T17:28:51.970Z,100557.00
2023-05-14T17:30:45.019Z,100559.89
2023-05-14T17:32:38.111Z,100561.64
2023-05-14T17:34:31.323Z,100559.70
2023-05-14T17:36:24.195Z,100559.09
2023-05-14T17:38:17.327Z,100560.66
2023-05-14T17:40:11.621Z,100562.08
2023-05-14T17:42:05.638Z,100562.84
2023-05-14T17:43:58.827Z,100565.13
2023-05-14T17:45:54.271Z,100567.55
2023-05-14T17:47:49.146Z,100568.14
2023-05-14T17:49:42.281Z,100573.19
2023-05-14T17:51:35.351Z,100570.91
2023-05-14T17:53:28.289Z,100569.80
2023-05-14T17:55:21.477Z,100572.77
2023-05-14T17:57:14.596Z,100575.35
2023-05-14T17:59:07.903Z,100572.35
2023-05-14T18:01:04.829Z,100570.96
2023-05-14T18:02:57.987Z,100567.77
2023-05-14T18:04:51.113Z,100566.53
2023-05-14T18:06:45.903Z,100565.23
2023-05-14T18:08:39.177Z,100567.05
2023-05-14T18:10:32.242Z,100572.06
2023-05-14T18:12:27.347Z,100569.56
2023-05-14T18:14:20.582Z,100570.01
2023-05-14T18:16:13.536Z,100571.18
2023-05-14T18:18:06.582Z,100574.68
2023-05-14T18:20:00.427Z,100576.48
2023-05-14T18:21:55.891Z,100576.19
2023-05-14T18:23:50.346Z,100581.30
2023-05-14T18:25:43.889Z,100579.33
2023-05-14T18:27:39.598Z,100581.34
2023-05-14T18:29:32.545Z,100580.05
2023-05-14T18:31:27.977Z,100583.39
2023-05-14T18:33:21.152Z,100578.52
2023-05-14T18:35:21.062Z,100580.47
2023-05-14T18:37:16.407Z,100584.34
2023-05-14T18:39:10.905Z,100580.85
2023-05-14T18:41:04.521Z,100585.30
2023-05-14T18:42:58.149Z,100581.88
2023-05-14T18:44:50.937Z,100583.90
2023-05-14T18:46:43.814Z,100583.98
2023-05-14T18:48:36.868Z,100586.61
2023-05-14T18:50:29.717Z,100587.33
2023-05-14T18:52:23.767Z,100583.29
2023-05-14T18:54:17.259Z,100583.83
2023-05-14T18:56:10.414Z,100585.36
2023-05-14T18:58:03.453Z,100585.30
2023-05-14T18:59:56.404Z,100586.73
2023-05-14T19:01:49.463Z,100582.55
2023-05-14T19:03:42.440Z,100580.84
2023-05-14T19:05:35.592Z,100579.04
2023-05-14T19:07:28.614Z,100579.42
2023-05-14T19:09:21.836Z,100575.23
2023-05-14T19:11:17.331Z,100569.55
2023-05-14T19:13:10.830Z,100568.77
2023-05-14T19:15:16.080Z,100569.92
2023-05-14T19:17:09.222Z,100569.74
2023-05-14T19:19:02.289Z,100574.08
2023-05-14T19:20:56.959Z,100571.41
2023-05-14T19:22:50.923Z,100573.00
2023-05-14T19:24:43.880Z,100574.35
2023-05-14T19:26:36.826Z,100575.84
2023-05-14T19:28:30.618Z,100573.39
2023-05-14T19:30:23.536Z,100574.40
2023-05-14T19:32:16.616Z,100573.56
2023-05-14T19:34:09.740Z,100568.77
2023-05-14T19:36:02.833Z,100566.72
2023-05-14T19:37:55.739Z,100565.25
2023-05-14T19:39:48.809Z,100564.67
2023-05-14T19:41:42.051Z,100561.98
2023-05-14T19:43:34.921Z,100558.79
2023-05-14T19:45:28.046Z,100555.73
2023-05-14T19:47:20.991Z,100557.20
2023-05-14T19:49:14.262Z,100556.54
2023-05-14T19:51:07.300Z,100552.06
2023-05-14T19:53:00.858Z,100552.00
2023-05-14T19:54:53.831Z,100548.41
2023-05-14T19:56:46.994Z,100544.98
2023-05-14T19:58:39.920Z,100542.28
2023-05-14T20:00:33.509Z,100538.20
2023-05-14T20:02:26.758Z,100536.41
2023-05-14T20:04:19.886Z,100533.43
2023-05-14T20:06:13.336Z,100533.09
2023-05-14T20:08:08.156Z,100533.33
2023-05-14T20:10:01.423Z,100529.17
2023-05-14T20:11:55.080Z,100526.02
2023-05-14T20:13:48.009Z,100528.92
2023-05-14T20:15:41.153Z,100528.16
2023-05-14T20:17:33.975Z,100524.88
2023-05-14T20:19:27.665Z,100522.98
2023-05-14T20:21:20.715Z,100523.27
2023-05-14T20:23:13.561Z,100522.80
2023-05-14T20:25:07.542Z,100518.21
2023-05-14T20:27:00.486Z,100515.36
2023-05-14T20:28:53.847Z,100514.34
2023-05-14T20:30:46.718Z,100513.77
2023-05-14T20:32:39.683Z,100511.27
2023-05-14T20:34:32.687Z,100505.38
2023-05-14T20:36:26.246Z,100503.60
2023-05-14T20:38:19.195Z,100500.02
2023-05-14T20:40:12.808Z,100494.90
2023-05-14T20:42:06.218Z,100495.17
2023-05-14T20:43:59.178Z,100491.40
2023-05-14T20:45:52.114Z,100489.63
2023-05-14T20:47:45.097Z,100485.83
2023-05-14T20:49:37.918Z,100486.10
2023-05-14T20:51:30.958Z,100485.36
2023-05-14T20:53:25.448Z,100486.14
2023-05-14T20:55:19.105Z,100489.52
2023-05-14T20:57:12.934Z,100485.91
2023-05-14T20:59:05.929Z,100483.33
2023-05-14T21:01:00.431Z,100479.93
2023-05-14T21:02:55.239Z,100480.16
2023-05-14T21:04:49.995Z,100477.58
2023-05-14T21:06:45.681Z,100474.30
2023-05-14T21:08:41.335Z,100468.93
2023-05-14T21:10:35.503Z,100469.28
2023-05-14T21:12:28.646Z,100465.04
2023-05-14T21:14:21.867Z,100462.98
2023-05-14T21:16:14.894Z,100462.66
2023-05-14T21:18:07.900Z,100457.26
2023-05-14T21:20:01.158Z,100455.55
2023-05-14T21:21:54.034Z,100453.05
2023-05-14T21:23:46.891Z,100453.81
2023-05-14T21:25:39.707Z,100449.90
2023-05-14T21:27:49.071Z,100451.77
2023-05-14T21:31:03.903Z,100450.48
2023-05-14T21:32:56.967Z,100446.51
2023-05-14T21:34:49.900Z,100447.23
2023-05-14T21:36:43.151Z,100452.05
2023-05-14T21:38:36.196Z,100441.18
2023-05-14T21:40:29.044Z,100437.88
2023-05-14T21:42:22.094Z,100434.47
2023-05-14T21:44:14.948Z,100435.09